Time;durP1;ratioP1;P1;durP2;ratioP2;P2;SDS_P1;SDS_P2;PMS_P1;PMS_P2;Temp;Humidity;BMP_temperature;BMP_pressure;BME280_temperature;BME280_humidity;BME280_pressure;Samples;Min_cycle;Max_cycle;Signal;HPM_P1;HPM_P2
2023/10/28 00:01:45;;;;;;;4.38;4.22;;;;;;;-145.48;100.00;64539.38;5955896;29;20175;-94
2023/10/28 00:04:47;;;;;;;6.40;6.10;;;;;;;-145.48;100.00;64539.38;5956273;29;20047;-93
2023/10/28 00:07:49;;;;;;;4.78;4.63;;;;;;;-145.48;100.00;64539.38;5955236;29;20039;-94
2023/10/28 00:10:51;;;;;;;5.22;4.88;;;;;;;-145.48;100.00;64539.38;5959314;29;20047;-93
2023/10/28 00:13:53;;;;;;;4.70;4.50;;;;;;;-145.48;100.00;64539.38;5953465;29;20047;-94
2023/10/28 00:16:55;;;;;;;5.88;5.38;;;;;;;-145.48;100.00;64539.38;5954411;29;20046;-94
2023/10/28 00:19:57;;;;;;;5.50;5.20;;;;;;;-145.48;100.00;64539.38;5954956;29;20046;-93
2023/10/28 00:23:03;;;;;;;6.25;5.80;;;;;;;-145.48;100.00;64539.38;5954493;29;20050;-94
2023/10/28 00:26:06;;;;;;;5.82;5.40;;;;;;;-145.48;100.00;64539.38;5962737;29;20102;-93
2023/10/28 00:29:08;;;;;;;5.70;5.40;;;;;;;-145.48;100.00;64539.38;5954385;29;20047;-93
2023/10/28 00:32:10;;;;;;;6.82;6.38;;;;;;;-145.48;100.00;64539.38;5952913;29;20134;-93
2023/10/28 00:35:12;;;;;;;5.35;5.07;;;;;;;-145.48;100.00;64539.38;5958905;29;20054;-92
2023/10/28 00:38:14;;;;;;;6.63;6.15;;;;;;;-145.48;100.00;64539.38;5969262;29;20055;-93
2023/10/28 00:41:17;;;;;;;8.70;4.93;;;;;;;-145.48;100.00;64539.38;5958407;29;20051;-93
2023/10/28 00:44:20;;;;;;;5.07;4.88;;;;;;;-145.48;100.00;64539.38;5969117;29;20146;-93
2023/10/28 00:47:23;;;;;;;5.53;5.32;;;;;;;-145.48;100.00;64539.38;5959155;29;20091;-93
2023/10/28 00:50:29;;;;;;;5.38;5.13;;;;;;;-145.48;100.00;64539.38;5972012;29;20188;-91
2023/10/28 00:53:33;;;;;;;4.80;4.63;;;;;;;-145.48;100.00;64539.38;5957995;29;20573;-92
2023/10/28 00:56:35;;;;;;;5.20;5.00;;;;;;;-145.48;100.00;64539.38;5967249;29;20043;-93
2023/10/28 00:59:38;;;;;;;5.15;4.85;;;;;;;-145.48;100.00;64539.38;5960785;29;20046;-93
2023/10/28 01:02:42;;;;;;;4.90;4.65;;;;;;;-145.48;100.00;64539.38;5959443;29;21191;-93
2023/10/28 01:05:46;;;;;;;4.70;4.50;;;;;;;-145.48;100.00;64539.38;5961642;29;20050;-93
2023/10/28 01:08:48;;;;;;;5.88;5.55;;;;;;;-145.48;100.00;64539.38;5960237;29;20459;-94
2023/10/28 01:11:51;;;;;;;5.03;4.80;;;;;;;-145.48;100.00;64539.38;5982084;29;20047;-95
2023/10/28 01:14:53;;;;;;;5.70;5.40;;;;;;;-145.48;100.00;64539.38;5976972;29;20039;-94
2023/10/28 01:18:02;;;;;;;5.50;5.30;;;;;;;-145.48;100.00;64539.38;5960130;29;20344;-93
2023/10/28 01:21:11;;;;;;;6.18;5.75;;;;;;;-145.48;100.00;64539.38;5959649;29;20534;-93
2023/10/28 01:24:14;;;;;;;6.10;5.75;;;;;;;-145.48;100.00;64539.38;5960976;29;20043;-93
2023/10/28 01:27:17;;;;;;;5.68;5.38;;;;;;;-145.48;100.00;64539.38;5968740;29;20039;-93
2023/10/28 01:30:19;;;;;;;6.35;5.85;;;;;;;-145.48;100.00;64539.38;5934064;29;20118;-93
2023/10/28 01:33:21;;;;;;;5.88;5.47;;;;;;;-145.48;100.00;64539.38;5956191;29;20055;-93
2023/10/28 01:36:23;;;;;;;6.07;5.78;;;;;;;-145.48;100.00;64539.38;5971890;29;20135;-93
2023/10/28 01:39:26;;;;;;;4.63;4.43;;;;;;;-145.48;100.00;64539.38;5960966;29;20066;-93
2023/10/28 01:42:28;;;;;;;7.05;6.32;;;;;;;-145.48;100.00;64539.38;5952540;29;20049;-94
2023/10/28 01:45:31;;;;;;;4.93;4.72;;;;;;;-145.48;100.00;64539.38;5957211;29;20055;-93
2023/10/28 01:48:33;;;;;;;4.88;4.68;;;;;;;-145.48;100.00;64539.38;5973367;29;20650;-93
2023/10/28 01:51:36;;;;;;;5.55;5.05;;;;;;;-145.48;100.00;64539.38;5971517;29;20189;-93
2023/10/28 01:54:38;;;;;;;5.00;4.80;;;;;;;-145.48;100.00;64539.38;5959405;29;20172;-93
2023/10/28 01:57:41;;;;;;;7.22;5.97;;;;;;;-145.48;100.00;64539.38;5957639;29;20402;-92
2023/10/28 02:00:43;;;;;;;4.25;4.05;;;;;;;-145.48;100.00;64539.38;5972352;29;20058;-93
2023/10/28 02:03:45;;;;;;;5.07;4.78;;;;;;;-145.48;100.00;64539.38;5958653;29;20436;-93
2023/10/28 02:06:55;;;;;;;5.97;5.65;;;;;;;-145.48;100.00;64539.38;5958011;29;20058;-93
2023/10/28 02:09:57;;;;;;;4.95;4.75;;;;;;;-145.48;100.00;64539.38;5973078;29;20043;-94
2023/10/28 02:12:59;;;;;;;5.53;5.13;;;;;;;-145.48;100.00;64539.38;5957574;29;20664;-93
2023/10/28 02:16:01;;;;;;;5.78;5.47;;;;;;;-145.48;100.00;64539.38;5960048;29;20043;-93
2023/10/28 02:19:05;;;;;;;4.60;4.30;;;;;;;-145.48;100.00;64539.38;5961601;29;20095;-93
2023/10/28 02:22:09;;;;;;;4.95;4.75;;;;;;;-145.48;100.00;64539.38;5977743;29;20047;-93
2023/10/28 02:25:16;;;;;;;4.80;4.60;;;;;;;-145.48;100.00;64539.38;5958329;29;20061;-94
2023/10/28 02:28:18;;;;;;;5.63;5.32;;;;;;;-145.48;100.00;64539.38;5954896;29;20553;-94
2023/10/28 02:31:20;;;;;;;4.72;4.53;;;;;;;-145.48;100.00;64539.38;5974540;29;20047;-93
2023/10/28 02:34:22;;;;;;;5.07;4.80;;;;;;;-145.48;100.00;64539.38;5958604;29;20140;-93
2023/10/28 02:37:26;;;;;;;5.35;5.05;;;;;;;-145.48;100.00;64539.38;5976120;29;20208;-93
2023/10/28 02:40:28;;;;;;;4.47;4.32;;;;;;;-145.48;100.00;64539.38;5957722;29;20066;-93
2023/10/28 02:43:30;;;;;;;4.75;4.43;;;;;;;-145.48;100.00;64539.38;5956730;29;20406;-93
2023/10/28 02:46:32;;;;;;;4.47;4.30;;;;;;;-145.48;100.00;64539.38;5976507;29;20149;-93
2023/10/28 02:49:37;;;;;;;5.35;5.05;;;;;;;-145.48;100.00;64539.38;5955905;29;20050;-92
2023/10/28 02:52:40;;;;;;;4.40;4.25;;;;;;;-145.48;100.00;64539.38;5966887;29;20062;-93
2023/10/28 02:55:42;;;;;;;6.07;5.68;;;;;;;-145.48;100.00;64539.38;5953100;29;20506;-94
2023/10/28 02:58:44;;;;;;;4.32;4.18;;;;;;;-145.48;100.00;64539.38;5960423;29;20224;-93
2023/10/28 03:01:46;;;;;;;4.90;4.68;;;;;;;-145.48;100.00;64539.38;5972604;29;20046;-93
2023/10/28 03:04:48;;;;;;;5.97;5.57;;;;;;;-145.48;100.00;64539.38;5972945;29;20517;-93
2023/10/28 03:07:51;;;;;;;7.28;5.63;;;;;;;-145.48;100.00;64539.38;5959122;29;20039;-93
2023/10/28 03:10:53;;;;;;;4.75;4.32;;;;;;;-145.48;100.00;64539.38;5957346;29;20070;-93
2023/10/28 03:13:55;;;;;;;4.22;4.05;;;;;;;-145.48;100.00;64539.38;5970412;29;20055;-94
2023/10/28 03:16:57;;;;;;;4.53;4.32;;;;;;;-145.48;100.00;64539.38;5959216;29;20549;-94
2023/10/28 03:19:59;;;;;;;5.85;5.38;;;;;;;-145.48;100.00;64539.38;5973007;29;20050;-93
2023/10/28 03:23:02;;;;;;;3.72;3.63;;;;;;;-145.48;100.00;64539.38;5959600;29;20069;-93
2023/10/28 03:26:06;;;;;;;3.60;3.50;;;;;;;-145.48;100.00;64539.38;5962056;29;20084;-93
2023/10/28 03:29:08;;;;;;;9.70;4.15;;;;;;;-145.48;100.00;64539.38;5957899;29;20305;-93
2023/10/28 03:32:12;;;;;;;4.72;4.53;;;;;;;-145.48;100.00;64539.38;5959700;29;20059;-95
2023/10/28 03:35:14;;;;;;;5.43;5.03;;;;;;;-145.48;100.00;64539.38;5957623;29;20051;-94
2023/10/28 03:38:17;;;;;;;5.53;4.93;;;;;;;-145.48;100.00;64539.38;5956251;29;20057;-94
2023/10/28 03:41:20;;;;;;;5.07;4.82;;;;;;;-145.48;100.00;64539.38;5957595;29;20043;-94
2023/10/28 03:44:22;;;;;;;4.70;4.50;;;;;;;-145.48;100.00;64539.38;5958490;29;20528;-94
2023/10/28 03:47:24;;;;;;;5.35;5.05;;;;;;;-145.48;100.00;64539.38;5973216;29;20061;-94
2023/10/28 03:50:26;;;;;;;5.15;4.75;;;;;;;-145.48;100.00;64539.38;5966205;29;20050;-93
2023/10/28 03:53:29;;;;;;;3.65;3.55;;;;;;;-145.48;100.00;64539.38;5959720;29;20083;-94
2023/10/28 03:56:31;;;;;;;5.10;4.80;;;;;;;-145.48;100.00;64539.38;5958372;29;20070;-94
2023/10/28 03:59:33;;;;;;;4.18;4.07;;;;;;;-145.48;100.00;64539.38;5972595;29;20042;-94
2023/10/28 04:02:35;;;;;;;4.68;4.43;;;;;;;-145.48;100.00;64539.38;5957722;29;20437;-94
2023/10/28 04:05:38;;;;;;;4.55;4.35;;;;;;;-145.48;100.00;64539.38;5958634;29;20155;-94
2023/10/28 04:08:40;;;;;;;4.57;4.18;;;;;;;-145.48;100.00;64539.38;5958301;29;20149;-94
2023/10/28 04:11:42;;;;;;;5.25;4.88;;;;;;;-145.48;100.00;64539.38;5957661;29;20486;-94
2023/10/28 04:14:44;;;;;;;4.63;4.43;;;;;;;-145.48;100.00;64539.38;5972054;29;21500;-93
2023/10/28 04:17:46;;;;;;;5.07;4.65;;;;;;;-145.48;100.00;64539.38;5958308;29;20066;-95
2023/10/28 04:20:50;;;;;;;5.30;5.07;;;;;;;-145.48;100.00;64539.38;5958193;29;20063;-95
2023/10/28 04:23:52;;;;;;;4.10;4.00;;;;;;;-145.48;100.00;64539.38;5957971;29;20046;-94
2023/10/28 04:26:54;;;;;;;4.88;4.57;;;;;;;-145.48;100.00;64539.38;5952659;29;20073;-94
2023/10/28 04:29:56;;;;;;;5.07;4.85;;;;;;;-145.48;100.00;64539.38;5950951;29;20035;-94
2023/10/28 04:32:58;;;;;;;4.65;4.45;;;;;;;-145.48;100.00;64539.38;5958330;29;20055;-94
2023/10/28 04:36:00;;;;;;;5.00;4.80;;;;;;;-145.48;100.00;64539.38;5958359;29;20074;-94
2023/10/28 04:39:03;;;;;;;3.83;3.63;;;;;;;-145.48;100.00;64539.38;5949134;29;20059;-94
2023/10/28 04:42:05;;;;;;;3.88;3.78;;;;;;;-145.48;100.00;64539.38;5956662;29;20436;-94
2023/10/28 04:45:10;;;;;;;4.70;4.47;;;;;;;-145.48;100.00;64539.38;5971773;29;20054;-94
2023/10/28 04:48:18;;;;;;;4.72;4.53;;;;;;;-145.48;100.00;64539.38;5955193;29;20505;-94
2023/10/28 04:51:20;;;;;;;4.75;4.55;;;;;;;-145.48;100.00;64539.38;5958193;29;20043;-93
2023/10/28 04:54:23;;;;;;;4.30;4.20;;;;;;;-145.48;100.00;64539.38;5957083;29;20058;-94
2023/10/28 04:57:25;;;;;;;4.70;4.50;;;;;;;-145.48;100.00;64539.38;5957664;29;20504;-94
2023/10/28 05:00:27;;;;;;;6.50;5.93;;;;;;;-145.48;100.00;64539.38;5958279;29;20494;-94
2023/10/28 05:03:29;;;;;;;4.35;4.13;;;;;;;-145.48;100.00;64539.38;5972302;29;20770;-94
2023/10/28 05:06:31;;;;;;;4.38;4.20;;;;;;;-145.48;100.00;64539.38;5958850;29;20418;-95
2023/10/28 05:09:36;;;;;;;4.55;4.35;;;;;;;-145.48;100.00;64539.38;5953607;29;20039;-94
2023/10/28 05:12:40;;;;;;;4.65;4.45;;;;;;;-145.48;100.00;64539.38;5951807;29;20406;-95
2023/10/28 05:15:42;;;;;;;3.85;3.75;;;;;;;-145.48;100.00;64539.38;5959756;29;20876;-95
2023/10/28 05:18:48;;;;;;;4.65;4.45;;;;;;;-145.48;100.00;64539.38;5969606;29;20085;-94
2023/10/28 05:21:50;;;;;;;4.45;4.25;;;;;;;-145.48;100.00;64539.38;5955161;29;20119;-95
2023/10/28 05:24:52;;;;;;;4.90;4.70;;;;;;;-145.48;100.00;64539.38;5971769;29;20050;-94
2023/10/28 05:27:54;;;;;;;4.40;4.25;;;;;;;-145.48;100.00;64539.38;5955343;29;20054;-93
2023/10/28 05:30:56;;;;;;;4.97;4.78;;;;;;;-145.48;100.00;64539.38;5954723;29;20043;-95
2023/10/28 05:33:59;;;;;;;4.70;4.50;;;;;;;-145.48;100.00;64539.38;5954944;29;20058;-94
2023/10/28 05:37:02;;;;;;;3.88;3.78;;;;;;;-145.48;100.00;64539.38;5961748;29;20067;-93
2023/10/28 05:40:10;;;;;;;4.70;4.55;;;;;;;-145.48;100.00;64539.38;5952106;29;20131;-96
2023/10/28 05:43:12;;;;;;;4.32;4.22;;;;;;;-145.48;100.00;64539.38;5959151;29;20058;-95
2023/10/28 05:46:14;;;;;;;4.82;4.63;;;;;;;-145.48;100.00;64539.38;5958036;29;20047;-95
2023/10/28 05:49:16;;;;;;;4.82;4.63;;;;;;;-145.48;100.00;64539.38;5962377;29;20571;-96
2023/10/28 05:52:20;;;;;;;4.68;4.47;;;;;;;-145.48;100.00;64539.38;5964282;29;20058;-95
2023/10/28 05:55:22;;;;;;;5.03;4.72;;;;;;;-145.48;100.00;64539.38;5958788;29;20301;-96
2023/10/28 05:58:24;;;;;;;4.10;4.00;;;;;;;-145.48;100.00;64539.38;5958317;29;20098;-95
2023/10/28 06:01:26;;;;;;;4.10;3.97;;;;;;;-145.48;100.00;64539.38;5957588;29;20770;-94
2023/10/28 06:04:31;;;;;;;3.92;3.83;;;;;;;-145.48;100.00;64539.38;5958624;29;21531;-95
2023/10/28 06:07:33;;;;;;;4.03;3.92;;;;;;;-145.48;100.00;64539.38;5972329;29;20075;-95
2023/10/28 06:10:36;;;;;;;4.40;4.20;;;;;;;-145.48;100.00;64539.38;5955936;29;20078;-95
2023/10/28 06:13:38;;;;;;;4.10;4.00;;;;;;;-145.48;100.00;64539.38;5958067;29;20187;-95
2023/10/28 06:16:40;;;;;;;3.65;3.55;;;;;;;-145.48;100.00;64539.38;5964188;29;20876;-94
2023/10/28 06:19:43;;;;;;;4.05;3.95;;;;;;;-145.48;100.00;64539.38;5971665;29;20046;-94
2023/10/28 06:22:45;;;;;;;4.18;4.07;;;;;;;-145.48;100.00;64539.38;5958707;29;20073;-95
2023/10/28 06:25:47;;;;;;;3.83;3.72;;;;;;;-145.48;100.00;64539.38;5971458;29;20058;-95
2023/10/28 06:28:49;;;;;;;4.68;4.47;;;;;;;-145.48;100.00;64539.38;5960243;29;20151;-94
2023/10/28 06:31:52;;;;;;;4.32;4.22;;;;;;;-145.48;100.00;64539.38;5959493;29;20055;-94
2023/10/28 06:34:55;;;;;;;4.00;3.88;;;;;;;-145.48;100.00;64539.38;5958548;29;20091;-94
2023/10/28 06:37:57;;;;;;;4.05;3.85;;;;;;;-145.48;100.00;64539.38;5957132;29;20085;-94
2023/10/28 06:40:59;;;;;;;3.72;3.63;;;;;;;-145.48;100.00;64539.38;5957797;29;20047;-93
2023/10/28 06:44:08;;;;;;;4.25;4.15;;;;;;;-145.48;100.00;64539.38;5960347;29;20352;-94
2023/10/28 06:47:11;;;;;;;4.32;4.15;;;;;;;-145.48;100.00;64539.38;5960246;29;20053;-94
2023/10/28 06:50:17;;;;;;;3.80;3.70;;;;;;;-145.48;100.00;64539.38;5964808;29;20039;-93
2023/10/28 06:53:21;;;;;;;4.35;4.22;;;;;;;-145.48;100.00;64539.38;5969467;29;20387;-94
2023/10/28 06:56:25;;;;;;;4.20;4.00;;;;;;;-145.48;100.00;64539.38;5957974;29;20506;-94
2023/10/28 06:59:28;;;;;;;4.53;4.32;;;;;;;-145.48;100.00;64539.38;5971431;29;20076;-94
2023/10/28 07:02:32;;;;;;;4.07;3.97;;;;;;;-145.48;100.00;64539.38;5968471;29;20051;-94
2023/10/28 07:05:34;;;;;;;4.13;4.00;;;;;;;-145.48;100.00;64539.38;5975826;29;20093;-93
2023/10/28 07:08:36;;;;;;;3.50;3.40;;;;;;;-145.48;100.00;64539.38;5958161;29;20636;-93
2023/10/28 07:11:39;;;;;;;3.75;3.65;;;;;;;-145.48;100.00;64539.38;5954463;29;20384;-93
2023/10/28 07:14:42;;;;;;;3.85;3.75;;;;;;;-145.48;100.00;64539.38;5974221;29;20057;-94
2023/10/28 07:17:44;;;;;;;3.85;3.75;;;;;;;-145.48;100.00;64539.38;5957955;29;20043;-94
2023/10/28 07:20:46;;;;;;;3.78;3.67;;;;;;;-145.48;100.00;64539.38;5958405;29;20050;-94
2023/10/28 07:23:49;;;;;;;3.70;3.60;;;;;;;-145.48;100.00;64539.38;5957928;29;20054;-94
2023/10/28 07:26:51;;;;;;;3.53;3.42;;;;;;;-145.48;100.00;64539.38;5957936;29;20043;-93
2023/10/28 07:29:53;;;;;;;4.53;4.43;;;;;;;-145.48;100.00;64539.38;5955951;29;20038;-94
2023/10/28 07:32:56;;;;;;;3.75;3.65;;;;;;;-145.48;100.00;64539.38;5954167;29;20053;-94
2023/10/28 07:36:02;;;;;;;3.80;3.70;;;;;;;-145.48;100.00;64539.38;5956089;29;20047;-95
2023/10/28 07:39:04;;;;;;;3.55;3.45;;;;;;;-145.48;100.00;64539.38;5964014;29;20618;-95
2023/10/28 07:42:06;;;;;;;3.20;3.10;;;;;;;-145.48;100.00;64539.38;5956651;29;20054;-95
2023/10/28 07:45:09;;;;;;;4.15;4.05;;;;;;;-145.48;100.00;64539.38;5960701;29;20504;-93
2023/10/28 07:48:12;;;;;;;4.53;4.43;;;;;;;-145.48;100.00;64539.38;5956564;29;20038;-93
2023/10/28 07:51:16;;;;;;;4.10;4.00;;;;;;;-145.48;100.00;64539.38;5953587;29;20058;-95
2023/10/28 07:54:19;;;;;;;3.90;3.80;;;;;;;-145.48;100.00;64539.38;5955962;29;20050;-96
2023/10/28 07:57:22;;;;;;;4.03;3.92;;;;;;;-145.48;100.00;64539.38;5971387;29;20051;-96
2023/10/28 08:00:26;;;;;;;4.25;4.15;;;;;;;-145.48;100.00;64539.38;5954908;29;20070;-96
2023/10/28 08:03:28;;;;;;;3.97;3.88;;;;;;;-145.48;100.00;64539.38;5955997;29;20039;-95
2023/10/28 08:06:30;;;;;;;9.50;3.97;;;;;;;-145.48;100.00;64539.38;5953441;29;20043;-96
2023/10/28 08:09:37;;;;;;;4.90;4.60;;;;;;;-145.48;100.00;64539.38;5956117;29;20050;-95
2023/10/28 08:12:40;;;;;;;4.15;4.03;;;;;;;-145.48;100.00;64539.38;5958949;29;20049;-95
2023/10/28 08:15:44;;;;;;;5.10;4.90;;;;;;;-145.48;100.00;64539.38;5949658;29;20063;-95
2023/10/28 08:18:47;;;;;;;4.00;3.90;;;;;;;-145.48;100.00;64539.38;5955287;29;20058;-96
2023/10/28 08:21:50;;;;;;;4.15;4.05;;;;;;;-145.48;100.00;64539.38;5953956;29;20054;-95
2023/10/28 08:24:52;;;;;;;3.50;3.40;;;;;;;-145.48;100.00;64539.38;5956748;29;20050;-95
2023/10/28 08:27:55;;;;;;;3.50;3.40;;;;;;;-145.48;100.00;64539.38;5954960;29;20047;-95
2023/10/28 08:30:57;;;;;;;4.22;4.13;;;;;;;-145.48;100.00;64539.38;5953095;29;20179;-95
2023/10/28 08:34:01;;;;;;;3.63;3.53;;;;;;;-145.48;100.00;64539.38;5954919;29;20062;-95
2023/10/28 08:37:03;;;;;;;4.57;4.38;;;;;;;-145.48;100.00;64539.38;5951912;29;20046;-95
2023/10/28 08:40:08;;;;;;;3.63;3.53;;;;;;;-145.48;100.00;64539.38;5962774;29;20315;-94
2023/10/28 08:43:10;;;;;;;3.22;3.13;;;;;;;-145.48;100.00;64539.38;5942213;29;20051;-93
2023/10/28 08:46:13;;;;;;;3.50;3.40;;;;;;;-145.48;100.00;64539.38;5952446;29;20102;-94
2023/10/28 08:49:18;;;;;;;4.70;4.55;;;;;;;-145.48;100.00;64539.38;5959032;29;20556;-94
2023/10/28 08:52:23;;;;;;;3.47;3.38;;;;;;;-145.48;100.00;64539.38;5955054;29;20069;-94
2023/10/28 08:55:26;;;;;;;4.00;3.90;;;;;;;-145.48;100.00;64539.38;5950807;29;20046;-94
2023/10/28 08:58:28;;;;;;;3.42;3.33;;;;;;;-145.48;100.00;64539.38;5954550;29;20585;-95
2023/10/28 09:01:31;;;;;;;3.95;3.85;;;;;;;-145.48;100.00;64539.38;5955383;29;20523;-94
2023/10/28 09:04:34;;;;;;;4.32;4.05;;;;;;;-145.48;100.00;64539.38;5956754;29;20465;-94
2023/10/28 09:07:36;;;;;;;4.00;3.90;;;;;;;-145.48;100.00;64539.38;5952498;29;20075;-95
2023/10/28 09:10:41;;;;;;;3.70;3.60;;;;;;;-145.48;100.00;64539.38;5954375;29;20570;-95
2023/10/28 09:13:45;;;;;;;3.90;3.80;;;;;;;-145.48;100.00;64539.38;5952252;29;20436;-95
2023/10/28 09:16:47;;;;;;;4.03;3.92;;;;;;;-145.48;100.00;64539.38;5954635;29;20238;-93
2023/10/28 09:19:51;;;;;;;4.05;3.95;;;;;;;-145.48;100.00;64539.38;5970158;29;20619;-93
2023/10/28 09:22:53;;;;;;;3.75;3.65;;;;;;;-145.48;100.00;64539.38;5956545;29;20054;-93
2023/10/28 09:25:56;;;;;;;3.67;3.58;;;;;;;-145.48;100.00;64539.38;5969506;29;20486;-93
2023/10/28 09:28:58;;;;;;;3.60;3.50;;;;;;;-145.48;100.00;64539.38;5953666;29;20102;-93
2023/10/28 09:32:08;;;;;;;3.70;3.60;;;;;;;-145.48;100.00;64539.38;5969198;29;20299;-93
2023/10/28 09:35:11;;;;;;;4.57;4.28;;;;;;;-145.48;100.00;64539.38;5954317;29;20043;-93
2023/10/28 09:38:14;;;;;;;3.55;3.45;;;;;;;-145.48;100.00;64539.38;5954264;29;20346;-93
2023/10/28 09:41:18;;;;;;;3.95;3.85;;;;;;;-145.48;100.00;64539.38;5963711;29;20494;-93
2023/10/28 09:44:21;;;;;;;4.57;4.47;;;;;;;-145.48;100.00;64539.38;5956519;29;20510;-93
2023/10/28 09:47:29;;;;;;;3.78;3.67;;;;;;;-145.48;100.00;64539.38;5954337;29;20522;-94
2023/10/28 09:50:37;;;;;;;4.57;4.45;;;;;;;-145.48;100.00;64539.38;5955330;29;20441;-93
2023/10/28 09:53:43;;;;;;;4.25;4.15;;;;;;;-145.48;100.00;64539.38;5970090;29;20238;-93
2023/10/28 09:56:47;;;;;;;4.30;4.20;;;;;;;-145.48;100.00;64539.38;5952136;29;20138;-93
2023/10/28 09:59:52;;;;;;;4.38;4.28;;;;;;;-145.48;100.00;64539.38;5966009;29;20047;-92
2023/10/28 10:03:17;;;;;;;3.53;3.42;;;;;;;-145.48;100.00;64539.38;5954052;29;20517;-93
2023/10/28 10:06:21;;;;;;;3.90;3.80;;;;;;;-145.48;100.00;64539.38;5952986;29;20546;-92
2023/10/28 10:09:23;;;;;;;4.00;3.85;;;;;;;-145.48;100.00;64539.38;5955292;29;20046;-92
2023/10/28 10:12:32;;;;;;;3.83;3.72;;;;;;;-145.48;100.00;64539.38;5953141;29;20487;-92
2023/10/28 10:15:35;;;;;;;4.07;3.97;;;;;;;-145.48;100.00;64539.38;5949322;29;20090;-92
2023/10/28 10:18:43;;;;;;;3.25;3.15;;;;;;;-145.48;100.00;64539.38;5957938;29;20055;-93
2023/10/28 10:21:51;;;;;;;3.70;3.60;;;;;;;-145.48;100.00;64539.38;5954851;29;20054;-92
2023/10/28 10:24:54;;;;;;;3.47;3.38;;;;;;;-145.48;100.00;64539.38;5955722;29;20047;-92
2023/10/28 10:28:09;;;;;;;3.90;3.75;;;;;;;-145.48;100.00;64539.38;5968967;29;20039;-93
2023/10/28 10:31:11;;;;;;;3.20;3.10;;;;;;;-145.48;100.00;64539.38;5950327;29;20047;-92
2023/10/28 10:34:34;;;;;;;3.40;3.30;;;;;;;-145.48;100.00;64539.38;5970428;29;20529;-92
2023/10/28 10:37:36;;;;;;;3.92;3.83;;;;;;;-145.48;100.00;64539.38;5969534;29;20051;-92
2023/10/28 10:40:41;;;;;;;3.55;3.45;;;;;;;-145.48;100.00;64539.38;5952095;29;20067;-92
2023/10/28 10:43:43;;;;;;;3.53;3.42;;;;;;;-145.48;100.00;64539.38;5955614;29;20793;-92
2023/10/28 10:46:46;;;;;;;4.22;4.05;;;;;;;-145.48;100.00;64539.38;5947284;29;20051;-91
2023/10/28 10:49:49;;;;;;;3.50;3.40;;;;;;;-145.48;100.00;64539.38;5939340;29;20051;-92
2023/10/28 10:52:52;;;;;;;3.67;3.58;;;;;;;-145.48;100.00;64539.38;5951247;29;20053;-93
2023/10/28 10:55:54;;;;;;;3.58;3.38;;;;;;;-145.48;100.00;64539.38;5955547;29;20281;-92
2023/10/28 10:58:57;;;;;;;3.90;3.70;;;;;;;-145.48;100.00;64539.38;5955696;29;20146;-93
2023/10/28 11:02:06;;;;;;;4.22;4.13;;;;;;;-145.48;100.00;64539.38;5948605;29;20045;-92
2023/10/28 11:05:09;;;;;;;3.67;3.58;;;;;;;-145.48;100.00;64539.38;5959209;29;20414;-93
2023/10/28 11:08:14;;;;;;;3.20;3.10;;;;;;;-145.48;100.00;64539.38;5967641;29;20474;-93
2023/10/28 11:11:17;;;;;;;4.32;4.13;;;;;;;-145.48;100.00;64539.38;5952641;29;20047;-93
2023/10/28 11:14:19;;;;;;;3.63;3.53;;;;;;;-145.48;100.00;64539.38;5963372;29;20057;-93
2023/10/28 11:17:21;;;;;;;3.55;3.45;;;;;;;-145.48;100.00;64539.38;5968181;29;20047;-94
2023/10/28 11:20:23;;;;;;;3.33;3.22;;;;;;;-145.48;100.00;64539.38;5952714;29;20074;-94
2023/10/28 11:23:26;;;;;;;3.45;3.35;;;;;;;-145.48;100.00;64539.38;5970318;29;20051;-90
2023/10/28 11:26:29;;;;;;;3.92;3.78;;;;;;;-145.48;100.00;64539.38;5959723;29;20619;-94
2023/10/28 11:29:31;;;;;;;3.35;3.25;;;;;;;-145.48;100.00;64539.38;5950567;29;20043;-94
2023/10/28 11:32:44;;;;;;;3.45;3.17;;;;;;;-145.48;100.00;64539.38;5958136;29;20050;-95
2023/10/28 11:35:53;;;;;;;3.05;2.95;;;;;;;-145.48;100.00;64539.38;5957968;29;20043;-95
2023/10/28 11:38:56;;;;;;;3.33;3.22;;;;;;;-145.48;100.00;64539.38;5955654;29;20149;-94
2023/10/28 11:42:08;;;;;;;3.40;3.30;;;;;;;-145.48;100.00;64539.38;5956259;29;20035;-95
2023/10/28 11:45:11;;;;;;;3.80;3.70;;;;;;;-145.48;100.00;64539.38;5952874;29;20565;-94
2023/10/28 11:48:14;;;;;;;3.67;3.47;;;;;;;-145.48;100.00;64539.38;5957991;29;20126;-94
2023/10/28 11:51:30;;;;;;;2.90;2.80;;;;;;;-145.48;100.00;64539.38;5952339;29;20047;-94
2023/10/28 11:54:33;;;;;;;3.50;3.40;;;;;;;-145.48;100.00;64539.38;5957207;29;20477;-95
2023/10/28 11:57:35;;;;;;;3.38;3.28;;;;;;;-145.48;100.00;64539.38;5968425;29;20051;-95
2023/10/28 12:00:38;;;;;;;3.42;3.33;;;;;;;-145.48;100.00;64539.38;5954992;29;20039;-95
2023/10/28 12:03:41;;;;;;;2.67;2.67;;;;;;;-145.48;100.00;64539.38;5957075;29;20050;-96
2023/10/28 12:06:44;;;;;;;2.67;2.67;;;;;;;-145.48;100.00;64539.38;5955012;29;20102;-96
2023/10/28 12:09:50;;;;;;;3.25;3.15;;;;;;;-145.48;100.00;64539.38;5956998;29;20047;-95
2023/10/28 12:12:54;;;;;;;3.13;3.03;;;;;;;-145.48;100.00;64539.38;5972340;29;20076;-96
2023/10/28 12:15:57;;;;;;;2.92;2.88;;;;;;;-145.48;100.00;64539.38;5958721;29;20426;-96
2023/10/28 12:19:01;;;;;;;3.00;2.90;;;;;;;-145.48;100.00;64539.38;5960589;29;20055;-96
2023/10/28 12:22:04;;;;;;;3.15;3.05;;;;;;;-145.48;100.00;64539.38;5951097;29;20057;-96
2023/10/28 12:25:11;;;;;;;2.72;2.72;;;;;;;-145.48;100.00;64539.38;5993624;29;20612;-96
2023/10/28 12:28:17;;;;;;;2.63;2.63;;;;;;;-145.48;100.00;64539.38;5957825;29;20574;-96
2023/10/28 12:32:26;;;;;;;2.60;2.60;;;;;;;-145.48;100.00;64539.38;5982952;29;20072;-96
2023/10/28 12:36:47;;;;;;;2.70;2.70;;;;;;;-145.48;100.00;64539.38;5986541;29;20043;-96
2023/10/28 12:40:57;;;;;;;3.33;3.22;;;;;;;-145.48;100.00;64539.38;5980509;29;20051;-96
2023/10/28 12:44:59;;;;;;;3.10;3.00;;;;;;;-145.48;100.00;64539.38;5982955;29;20047;-96
2023/10/28 12:49:07;;;;;;;3.15;3.05;;;;;;;-145.48;100.00;64539.38;5985568;29;20059;-96
2023/10/28 23:16:08;;;;;;;4.43;4.30;;;;;;;-145.48;100.00;64539.38;6290123;24;20052;-96
2023/10/28 23:19:10;;;;;;;4.88;4.53;;;;;;;-145.48;100.00;64539.38;5890838;30;20058;-96
2023/10/28 23:22:15;;;;;;;3.50;3.40;;;;;;;-145.48;100.00;64539.38;5898071;30;20465;-96
2023/10/28 23:25:17;;;;;;;3.22;3.13;;;;;;;-145.48;100.00;64539.38;5885352;30;20533;-96
2023/10/28 23:28:20;;;;;;;3.20;3.10;;;;;;;-145.48;100.00;64539.38;5890532;30;20056;-96
2023/10/28 23:31:23;;;;;;;4.32;4.03;;;;;;;-145.48;100.00;64539.38;5894855;30;20048;-96
2023/10/28 23:34:25;;;;;;;4.05;3.95;;;;;;;-145.48;100.00;64539.38;5898843;30;20056;-95
2023/10/28 23:37:32;;;;;;;3.70;3.50;;;;;;;-145.48;100.00;64539.38;5910408;30;20056;-96
2023/10/28 23:40:37;;;;;;;3.50;3.40;;;;;;;-145.48;100.00;64539.38;5892390;30;20059;-94
2023/10/28 23:43:40;;;;;;;3.60;3.50;;;;;;;-145.48;100.00;64539.38;5896052;30;20048;-96
2023/10/28 23:46:43;;;;;;;3.40;3.30;;;;;;;-145.48;100.00;64539.38;5893227;30;20427;-96
2023/10/28 23:49:46;;;;;;;3.40;3.30;;;;;;;-145.48;100.00;64539.38;5891955;30;20451;-96
2023/10/28 23:52:48;;;;;;;4.03;3.83;;;;;;;-145.48;100.00;64539.38;5893836;30;20127;-95
2023/10/28 23:55:51;;;;;;;4.53;4.30;;;;;;;-145.48;100.00;64539.38;5897959;30;20144;-96
2023/10/28 23:58:54;;;;;;;3.88;3.78;;;;;;;-145.48;100.00;64539.38;5901409;30;20058;-96
